createdAt,value
2018-05-02T00:01:00.568Z,6.96
2018-05-02T00:03:26.416Z,7.07
2018-05-02T00:05:52.289Z,6.79
2018-05-02T00:08:18.225Z,6.81
2018-05-02T00:10:44.085Z,6.59
2018-05-02T00:13:09.964Z,6.67
2018-05-02T00:15:35.824Z,6.75
2018-05-02T00:18:01.791Z,6.80
2018-05-02T00:20:27.599Z,6.71
2018-05-02T00:22:53.503Z,6.69
2018-05-02T00:25:19.340Z,6.63
2018-05-02T00:27:45.227Z,6.78
2018-05-02T00:30:11.092Z,6.67
2018-05-02T00:32:36.968Z,6.73
2018-05-02T00:35:02.867Z,6.53
2018-05-02T00:37:28.740Z,6.93
2018-05-02T00:39:54.611Z,6.76
2018-05-02T00:42:20.475Z,7.11
2018-05-02T00:44:46.330Z,6.94
2018-05-02T00:47:12.176Z,6.81
2018-05-02T00:49:38.046Z,6.70
2018-05-02T00:52:03.892Z,6.76
2018-05-02T00:54:29.780Z,6.59
2018-05-02T00:56:55.667Z,6.91
2018-05-02T00:59:21.530Z,7.13
2018-05-02T01:01:47.384Z,7.15
2018-05-02T01:04:13.285Z,7.02
2018-05-02T01:06:39.174Z,6.93
2018-05-02T01:09:05.088Z,6.84
2018-05-02T01:11:30.972Z,6.71
2018-05-02T01:13:56.821Z,6.52
2018-05-02T01:16:22.692Z,6.93
2018-05-02T01:18:48.564Z,6.80
2018-05-02T01:21:14.437Z,7.01
2018-05-02T01:23:40.330Z,6.94
2018-05-02T01:26:06.177Z,7.01
2018-05-02T01:28:32.013Z,7.09
2018-05-02T01:30:57.857Z,7.29
2018-05-02T01:33:23.715Z,7.39
2018-05-02T01:35:49.589Z,7.61
2018-05-02T01:38:15.453Z,7.29
2018-05-02T01:40:41.318Z,7.19
2018-05-02T01:43:07.153Z,7.23
2018-05-02T01:45:33.032Z,7.31
2018-05-02T01:47:58.872Z,7.39
2018-05-02T01:50:24.704Z,7.65
2018-05-02T01:52:50.544Z,7.67
2018-05-02T01:55:16.348Z,7.19
2018-05-02T01:57:42.229Z,7.14
2018-05-02T02:00:08.057Z,6.95
2018-05-02T02:02:33.902Z,7.13
2018-05-02T02:04:59.759Z,7.02
2018-05-02T02:07:25.640Z,7.25
2018-05-02T02:09:51.497Z,7.44
2018-05-02T02:12:17.346Z,7.49
2018-05-02T02:14:43.233Z,7.60
2018-05-02T02:17:09.081Z,7.62
2018-05-02T02:19:34.909Z,7.68
2018-05-02T02:22:00.764Z,7.66
2018-05-02T02:24:26.639Z,7.75
2018-05-02T02:26:52.493Z,7.72
2018-05-02T02:29:18.373Z,7.82
2018-05-02T02:31:44.207Z,7.73
2018-05-02T02:34:10.082Z,7.70
2018-05-02T02:36:35.952Z,7.45
2018-05-02T02:39:01.848Z,7.52
2018-05-02T02:41:27.710Z,7.64
2018-05-02T02:43:53.559Z,7.77
2018-05-02T02:46:19.417Z,7.57
2018-05-02T02:48:45.268Z,7.46
2018-05-02T02:51:11.126Z,7.62
2018-05-02T02:53:36.984Z,7.49
2018-05-02T02:56:02.851Z,7.67
2018-05-02T02:58:28.713Z,7.58
2018-05-02T03:00:54.613Z,7.68
2018-05-02T03:03:20.497Z,7.65
2018-05-02T03:05:46.369Z,7.87
2018-05-02T03:08:12.243Z,7.84
2018-05-02T03:10:38.112Z,7.66
2018-05-02T03:13:03.988Z,7.37
2018-05-02T03:15:29.848Z,7.58
2018-05-02T03:17:55.699Z,7.61
2018-05-02T03:20:21.542Z,7.66
2018-05-02T03:22:47.427Z,7.59
2018-05-02T03:25:13.294Z,7.46
2018-05-02T03:27:39.177Z,7.46
2018-05-02T03:30:05.014Z,7.60
2018-05-02T03:32:30.884Z,7.50
2018-05-02T03:34:56.754Z,7.49
2018-05-02T03:37:22.577Z,7.61
2018-05-02T03:39:48.410Z,7.84
2018-05-02T03:42:14.269Z,7.80
2018-05-02T03:44:40.168Z,7.80
2018-05-02T03:47:06.048Z,7.63
2018-05-02T03:49:31.895Z,7.76
2018-05-02T03:51:57.761Z,7.80
2018-05-02T03:54:23.645Z,7.89
2018-05-02T03:56:49.472Z,7.75
2018-05-02T03:59:15.373Z,8.04
2018-05-02T04:01:53.525Z,7.66
2018-05-02T04:04:31.892Z,7.69
2018-05-02T04:07:14.554Z,7.82
2018-05-02T04:09:40.461Z,7.64
2018-05-02T04:12:06.381Z,7.70
2018-05-02T04:14:32.251Z,7.65
2018-05-02T04:16:58.129Z,7.77
2018-05-02T04:19:23.998Z,7.88
2018-05-02T04:21:49.865Z,7.98
2018-05-02T04:24:15.705Z,7.96
2018-05-02T04:26:41.572Z,7.93
2018-05-02T04:29:07.454Z,7.73
2018-05-02T04:31:33.320Z,7.66
2018-05-02T04:33:59.180Z,7.61
2018-05-02T04:36:25.064Z,7.62
2018-05-02T04:38:50.932Z,7.62
2018-05-02T04:41:16.868Z,7.82
2018-05-02T04:43:42.758Z,7.66
2018-05-02T04:46:08.624Z,7.68
2018-05-02T04:48:34.490Z,7.90
2018-05-02T04:51:00.339Z,7.88
2018-05-02T04:53:26.284Z,8.07
2018-05-02T04:55:52.141Z,7.98
2018-05-02T04:58:18.017Z,7.97
2018-05-02T05:00:43.858Z,8.07
2018-05-02T05:03:09.724Z,8.23
2018-05-02T05:05:35.601Z,8.33
2018-05-02T05:08:01.656Z,8.35
2018-05-02T05:10:27.521Z,8.33
2018-05-02T05:12:53.745Z,8.46
2018-05-02T05:15:19.616Z,8.57
2018-05-02T05:17:45.466Z,8.69
2018-05-02T05:20:11.320Z,8.84
2018-05-02T05:22:37.184Z,8.80
2018-05-02T05:25:03.077Z,8.91
2018-05-02T05:27:28.928Z,8.99
2018-05-02T05:29:54.793Z,9.02
2018-05-02T05:32:20.684Z,9.14
2018-05-02T05:34:46.526Z,9.28
2018-05-02T05:37:12.387Z,9.38
2018-05-02T05:39:38.252Z,9.41
2018-05-02T05:42:04.100Z,9.47
2018-05-02T05:44:29.977Z,9.49
2018-05-02T05:46:55.883Z,9.71
2018-05-02T05:49:21.724Z,9.72
2018-05-02T05:51:47.566Z,9.87
2018-05-02T05:54:13.576Z,9.87
2018-05-02T05:56:39.376Z,9.86
2018-05-02T05:59:05.218Z,9.88
2018-05-02T06:01:31.172Z,9.98
2018-05-02T06:03:57.032Z,10.47
2018-05-02T06:06:23.347Z,10.56
2018-05-02T06:08:49.225Z,10.42
2018-05-02T06:11:15.120Z,10.41
2018-05-02T06:13:41.013Z,10.53
2018-05-02T06:16:06.957Z,10.64
2018-05-02T06:18:32.817Z,10.55
2018-05-02T06:20:58.681Z,10.64
2018-05-02T06:23:24.530Z,10.80
2018-05-02T06:25:51.206Z,11.12
2018-05-02T06:28:17.091Z,11.64
2018-05-02T06:30:42.953Z,11.53
2018-05-02T06:33:08.841Z,11.33
2018-05-02T06:35:34.677Z,11.43
2018-05-02T06:38:00.573Z,11.33
2018-05-02T06:40:26.384Z,11.68
2018-05-02T06:42:52.248Z,11.81
2018-05-02T06:45:18.101Z,11.67
2018-05-02T06:47:44.024Z,11.54
2018-05-02T06:50:09.906Z,11.50
2018-05-02T06:52:35.756Z,11.81
2018-05-02T06:55:01.601Z,11.89
2018-05-02T06:57:27.444Z,11.80
2018-05-02T06:59:53.325Z,11.92
2018-05-02T07:02:19.193Z,11.92
2018-05-02T07:04:45.080Z,11.92
2018-05-02T07:07:11.030Z,12.09
2018-05-02T07:09:36.827Z,12.21
2018-05-02T07:12:02.674Z,12.27
2018-05-02T07:14:28.513Z,12.26
2018-05-02T07:16:54.376Z,12.07
2018-05-02T07:19:20.239Z,12.16
2018-05-02T07:21:46.100Z,12.06
2018-05-02T07:24:11.915Z,12.18
2018-05-02T07:26:37.821Z,12.16
2018-05-02T07:29:03.678Z,12.13
2018-05-02T07:31:29.521Z,12.04
2018-05-02T07:33:55.384Z,12.18
2018-05-02T07:36:21.222Z,12.15
2018-05-02T07:38:47.064Z,12.30
2018-05-02T07:41:12.942Z,12.41
2018-05-02T07:43:38.821Z,12.64
2018-05-02T07:46:04.729Z,12.24
2018-05-02T07:48:30.607Z,12.40
2018-05-02T07:50:56.486Z,12.19
2018-05-02T07:53:22.311Z,12.07
2018-05-02T07:55:48.157Z,12.10
2018-05-02T07:58:14.039Z,12.38
2018-05-02T08:00:39.897Z,12.40
2018-05-02T08:03:05.803Z,12.06
2018-05-02T08:05:31.648Z,12.13
2018-05-02T08:07:57.848Z,12.20
2018-05-02T08:10:23.720Z,12.23
2018-05-02T08:12:49.601Z,12.30
2018-05-02T08:15:15.477Z,12.22
2018-05-02T08:17:41.363Z,12.32
2018-05-02T08:20:07.261Z,12.32
2018-05-02T08:22:33.112Z,12.28
2018-05-02T08:24:58.925Z,12.21
2018-05-02T08:27:25.096Z,12.40
2018-05-02T08:29:50.968Z,12.45
2018-05-02T08:32:16.834Z,12.19
2018-05-02T08:34:42.705Z,12.41
2018-05-02T08:37:08.521Z,12.45
2018-05-02T08:39:34.361Z,12.65
2018-05-02T08:42:00.222Z,12.89
2018-05-02T08:44:26.085Z,13.18
2018-05-02T08:46:51.932Z,13.40
2018-05-02T08:49:17.808Z,13.62
2018-05-02T08:51:43.684Z,13.62
2018-05-02T08:54:09.588Z,13.60
2018-05-02T08:56:35.524Z,13.90
2018-05-02T08:59:01.361Z,14.27
2018-05-02T09:01:27.337Z,14.39
2018-05-02T09:03:53.199Z,14.15
2018-05-02T09:06:19.068Z,14.45
2018-05-02T09:08:44.913Z,14.70
2018-05-02T09:11:10.760Z,14.83
2018-05-02T09:13:36.598Z,14.94
2018-05-02T09:16:02.456Z,14.88
2018-05-02T09:18:28.295Z,15.25
2018-05-02T09:20:54.164Z,15.61
2018-05-02T09:23:20.005Z,15.84
2018-05-02T09:25:45.901Z,15.66
2018-05-02T09:28:11.791Z,15.83
2018-05-02T09:30:37.613Z,15.77
2018-05-02T09:33:03.442Z,15.89
2018-05-02T09:35:29.313Z,15.46
2018-05-02T09:37:55.168Z,15.34
2018-05-02T09:40:21.025Z,15.72
2018-05-02T09:42:46.881Z,15.76
2018-05-02T09:45:12.745Z,16.37
2018-05-02T09:47:38.600Z,16.46
2018-05-02T09:50:04.582Z,16.48
2018-05-02T09:52:30.414Z,16.54
2018-05-02T09:54:56.260Z,16.10
2018-05-02T09:57:22.085Z,16.75
2018-05-02T09:59:47.921Z,16.35
2018-05-02T10:02:13.760Z,16.82
2018-05-02T10:04:39.619Z,17.00
2018-05-02T10:07:05.476Z,17.15
2018-05-02T10:09:31.346Z,17.00
2018-05-02T10:11:57.215Z,17.37
2018-05-02T10:14:23.101Z,17.29
2018-05-02T10:16:48.986Z,17.31
2018-05-02T10:19:14.852Z,17.58
2018-05-02T10:21:40.740Z,17.27
2018-05-02T10:24:06.589Z,17.66
2018-05-02T10:26:32.481Z,17.68
2018-05-02T10:28:58.340Z,17.86
2018-05-02T10:31:24.211Z,17.59
2018-05-02T10:33:50.092Z,17.81
2018-05-02T10:36:15.949Z,17.74
2018-05-02T10:38:41.831Z,17.91
2018-05-02T10:41:07.733Z,18.09
2018-05-02T10:43:33.599Z,18.03
2018-05-02T10:45:59.525Z,18.11
2018-05-02T10:48:25.418Z,18.48
2018-05-02T10:50:51.272Z,18.14
2018-05-02T10:53:17.153Z,18.75
2018-05-02T10:55:43.005Z,19.05
2018-05-02T10:58:08.869Z,19.28
2018-05-02T11:00:34.750Z,19.19
2018-05-02T11:03:00.688Z,19.40
2018-05-02T11:05:26.564Z,19.47
2018-05-02T11:07:52.457Z,20.25
2018-05-02T11:10:18.324Z,20.09
2018-05-02T11:12:44.181Z,19.07
2018-05-02T11:15:10.053Z,18.94
2018-05-02T11:17:35.944Z,19.22
2018-05-02T11:20:01.812Z,19.23
2018-05-02T11:22:27.783Z,19.54
2018-05-02T11:24:53.637Z,18.90
2018-05-02T11:27:19.462Z,19.45
2018-05-02T11:29:45.300Z,19.73
2018-05-02T11:32:11.174Z,19.64
2018-05-02T11:34:37.066Z,19.73
2018-05-02T11:37:02.915Z,19.96
2018-05-02T11:39:28.793Z,19.84
2018-05-02T11:41:54.668Z,20.18
2018-05-02T11:44:20.513Z,19.62
2018-05-02T11:46:46.367Z,19.60
2018-05-02T11:49:12.229Z,19.74
2018-05-02T11:51:38.096Z,19.40
2018-05-02T11:54:03.955Z,19.65
2018-05-02T11:56:29.816Z,19.62
2018-05-02T11:58:55.685Z,20.10
2018-05-02T12:01:21.656Z,20.20
2018-05-02T12:03:47.516Z,20.37
2018-05-02T12:06:13.372Z,20.52
2018-05-02T12:08:40.102Z,20.94
2018-05-02T12:11:05.988Z,20.87
2018-05-02T12:13:31.860Z,20.05
2018-05-02T12:15:57.788Z,20.10
2018-05-02T12:18:23.636Z,20.07
2018-05-02T12:20:49.461Z,19.96
2018-05-02T12:23:15.313Z,20.37
2018-05-02T12:25:41.184Z,20.45
2018-05-02T12:28:07.042Z,20.58
2018-05-02T12:30:32.899Z,20.48
2018-05-02T12:32:58.756Z,20.54
2018-05-02T12:35:24.628Z,21.07
2018-05-02T12:37:50.438Z,20.65
2018-05-02T12:40:16.297Z,20.56
2018-05-02T12:42:42.194Z,20.38
2018-05-02T12:45:08.029Z,21.27
2018-05-02T12:47:33.891Z,22.30
2018-05-02T12:49:59.721Z,22.79
2018-05-02T12:52:25.605Z,23.39
2018-05-02T12:54:51.482Z,23.72
2018-05-02T12:57:17.352Z,23.30
2018-05-02T12:59:43.235Z,23.33
2018-05-02T13:02:09.109Z,21.61
2018-05-02T13:04:34.985Z,21.30
2018-05-02T13:07:00.824Z,21.30
2018-05-02T13:09:26.671Z,20.70
2018-05-02T13:11:52.517Z,20.81
2018-05-02T13:14:18.365Z,20.92
2018-05-02T13:16:44.221Z,21.34
2018-05-02T13:19:10.073Z,21.34
2018-05-02T13:21:35.921Z,20.90
2018-05-02T13:24:01.757Z,20.72
2018-05-02T13:26:27.644Z,20.61
2018-05-02T13:28:53.492Z,20.46
2018-05-02T13:31:19.365Z,20.43
2018-05-02T13:33:45.212Z,20.84
2018-05-02T13:36:11.036Z,20.89
2018-05-02T13:38:36.888Z,21.14
2018-05-02T13:41:02.773Z,20.98
2018-05-02T13:43:28.644Z,21.44
2018-05-02T13:45:54.480Z,21.56
2018-05-02T13:48:20.325Z,21.34
2018-05-02T13:50:46.192Z,21.41
2018-05-02T13:53:12.064Z,21.52
2018-05-02T13:55:37.937Z,21.76
2018-05-02T13:58:03.825Z,21.97
2018-05-02T14:00:30.649Z,22.07
2018-05-02T14:02:56.524Z,21.57
2018-05-02T14:05:22.382Z,21.79
2018-05-02T14:07:48.252Z,22.24
2018-05-02T14:10:14.121Z,21.41
2018-05-02T14:12:40.008Z,22.59
2018-05-02T14:15:05.948Z,22.94
2018-05-02T14:17:31.867Z,22.49
2018-05-02T14:19:57.681Z,22.62
2018-05-02T14:22:23.556Z,22.87
2018-05-02T14:24:49.487Z,22.18
2018-05-02T14:27:15.316Z,22.58
2018-05-02T14:29:41.182Z,23.16
2018-05-02T14:32:07.033Z,22.57
2018-05-02T14:34:32.901Z,21.89
2018-05-02T14:36:58.757Z,22.12
2018-05-02T14:39:24.695Z,22.55
2018-05-02T14:41:50.568Z,23.33
2018-05-02T14:44:16.475Z,23.91
2018-05-02T14:46:42.337Z,23.52
2018-05-02T14:49:08.237Z,23.29
2018-05-02T14:51:34.072Z,23.63
2018-05-02T14:53:59.889Z,23.47
2018-05-02T14:56:25.733Z,23.20
2018-05-02T14:58:51.574Z,23.52
2018-05-02T15:01:17.458Z,23.04
2018-05-02T15:03:43.284Z,22.63
2018-05-02T15:06:09.590Z,22.64
2018-05-02T15:08:35.698Z,22.45
2018-05-02T15:11:01.798Z,22.52
2018-05-02T15:13:27.784Z,22.98
2018-05-02T15:15:53.655Z,22.56
2018-05-02T15:18:19.525Z,22.57
2018-05-02T15:20:45.470Z,22.25
2018-05-02T15:23:11.325Z,22.21
2018-05-02T15:25:37.192Z,21.32
2018-05-02T15:28:03.089Z,21.30
2018-05-02T15:30:28.944Z,21.10
2018-05-02T15:32:54.809Z,21.25
2018-05-02T15:35:20.649Z,21.43
2018-05-02T15:37:46.521Z,21.45
2018-05-02T15:40:12.396Z,21.44
2018-05-02T15:42:38.277Z,21.65
2018-05-02T15:45:04.176Z,21.73
2018-05-02T15:47:30.043Z,21.62
2018-05-02T15:49:55.894Z,21.42
2018-05-02T15:52:21.797Z,21.07
2018-05-02T15:54:47.664Z,20.69
2018-05-02T15:57:13.585Z,20.64
2018-05-02T15:59:39.453Z,20.66
2018-05-02T16:02:05.360Z,20.82
2018-05-02T16:04:31.234Z,20.45
2018-05-02T16:06:57.099Z,20.46
2018-05-02T16:09:22.964Z,20.48
2018-05-02T16:11:48.816Z,20.49
2018-05-02T16:14:14.687Z,20.35
2018-05-02T16:16:40.556Z,20.42
2018-05-02T16:19:06.467Z,20.46
2018-05-02T16:24:27.185Z,20.37
2018-05-02T16:26:53.060Z,20.36
2018-05-02T16:29:18.954Z,20.55
2018-05-02T16:31:44.818Z,20.53
2018-05-02T16:34:10.765Z,20.38
2018-05-02T16:36:36.629Z,20.36
2018-05-02T16:39:02.559Z,20.33
2018-05-02T16:41:28.466Z,20.26
2018-05-02T16:43:54.340Z,20.30
2018-05-02T16:46:20.209Z,20.20
2018-05-02T16:48:46.072Z,20.05
2018-05-02T16:51:11.946Z,19.95
2018-05-02T16:53:37.805Z,19.98
2018-05-02T16:56:03.720Z,19.90
2018-05-02T16:58:29.664Z,19.68
2018-05-02T17:00:55.627Z,19.74
2018-05-02T17:03:21.491Z,19.61
2018-05-02T17:05:47.396Z,19.66
2018-05-02T17:08:13.269Z,19.76
2018-05-02T17:10:39.139Z,19.79
2018-05-02T17:13:05.013Z,19.63
2018-05-02T17:15:30.861Z,19.69
2018-05-02T17:17:56.744Z,19.62
2018-05-02T17:20:24.678Z,19.54
2018-05-02T17:22:50.779Z,19.44
2018-05-02T17:25:17.392Z,19.30
2018-05-02T17:27:43.319Z,19.13
2018-05-02T17:30:09.254Z,19.12
2018-05-02T17:32:35.116Z,18.96
2018-05-02T17:35:01.005Z,18.93
2018-05-02T17:37:26.872Z,18.94
2018-05-02T17:39:52.745Z,18.89
2018-05-02T17:42:18.629Z,18.97
2018-05-02T17:44:44.541Z,18.87
2018-05-02T17:47:10.378Z,18.73
2018-05-02T17:49:36.276Z,18.69
2018-05-02T17:52:02.138Z,18.51
2018-05-02T17:54:28.008Z,18.61
2018-05-02T17:56:53.870Z,18.48
2018-05-02T17:59:19.783Z,18.38
2018-05-02T18:01:45.668Z,18.33
2018-05-02T18:04:11.569Z,18.29
2018-05-02T18:06:37.428Z,18.14
2018-05-02T18:09:03.334Z,17.96
2018-05-02T18:11:29.176Z,17.93
2018-05-02T18:14:02.101Z,18.00
2018-05-02T18:16:27.978Z,17.71
2018-05-02T18:18:53.852Z,17.62
2018-05-02T18:21:19.769Z,17.44
2018-05-02T18:23:45.633Z,17.42
2018-05-02T18:26:11.479Z,17.26
2018-05-02T18:28:37.380Z,17.26
2018-05-02T18:31:03.281Z,17.17
2018-05-02T18:33:29.113Z,17.11
2018-05-02T18:35:54.968Z,16.96
2018-05-02T18:38:20.848Z,16.90
2018-05-02T18:40:46.700Z,16.91
2018-05-02T18:43:12.541Z,16.69
2018-05-02T18:45:38.408Z,16.64
2018-05-02T18:48:10.077Z,16.59
2018-05-02T18:50:35.972Z,16.51
2018-05-02T18:53:01.865Z,16.37
2018-05-02T18:55:27.714Z,16.38
2018-05-02T18:57:53.646Z,16.28
2018-05-02T19:00:19.832Z,16.09
2018-05-02T19:02:47.789Z,16.08
2018-05-02T19:05:15.448Z,16.03
2018-05-02T19:07:42.712Z,15.95
2018-05-02T19:10:10.042Z,15.87
2018-05-02T19:12:37.378Z,15.70
2018-05-02T19:15:05.383Z,15.70
2018-05-02T19:17:34.446Z,15.72
2018-05-02T19:20:06.673Z,15.58
2018-05-02T19:22:32.542Z,15.37
2018-05-02T19:25:04.542Z,15.37
2018-05-02T19:27:30.421Z,15.40
2018-05-02T19:29:56.341Z,15.37
2018-05-02T19:32:28.262Z,15.31
2018-05-02T19:34:54.226Z,15.11
2018-05-02T19:37:20.133Z,15.08
2018-05-02T19:39:52.186Z,15.16
2018-05-02T19:42:24.385Z,15.01
2018-05-02T19:44:50.286Z,15.02
2018-05-02T19:47:16.178Z,14.93
2018-05-02T19:49:42.072Z,14.92
2018-05-02T19:55:16.788Z,14.77
2018-05-02T19:57:42.622Z,14.86
2018-05-02T20:00:14.596Z,14.76
2018-05-02T20:02:46.457Z,14.70
2018-05-02T20:05:12.351Z,14.67
2018-05-02T20:07:41.089Z,14.64
2018-05-02T20:10:13.092Z,14.61
2018-05-02T20:12:45.077Z,14.52
2018-05-02T20:15:10.967Z,14.59
2018-05-02T20:17:36.928Z,14.55
2018-05-02T20:20:02.879Z,14.64
2018-05-02T20:22:28.724Z,14.56
2018-05-02T20:24:54.573Z,14.68
2018-05-02T20:27:20.431Z,14.59
2018-05-02T20:29:46.297Z,14.71
2018-05-02T20:32:12.144Z,14.62
2018-05-02T20:34:38.012Z,14.67
2018-05-02T20:37:03.944Z,14.69
2018-05-02T20:39:29.794Z,14.43
2018-05-02T20:41:55.696Z,14.54
2018-05-02T20:44:21.532Z,14.53
2018-05-02T20:46:47.366Z,14.49
2018-05-02T20:49:13.271Z,14.50
2018-05-02T20:51:39.144Z,14.32
2018-05-02T20:54:04.980Z,14.33
2018-05-02T20:56:30.826Z,14.28
2018-05-02T20:58:56.688Z,14.44
2018-05-02T21:01:22.565Z,14.32
2018-05-02T21:03:48.425Z,14.21
2018-05-02T21:06:14.249Z,14.37
2018-05-02T21:08:40.088Z,14.25
2018-05-02T21:11:05.937Z,14.27
2018-05-02T21:13:31.768Z,14.31
2018-05-02T21:15:57.635Z,14.33
2018-05-02T21:18:23.489Z,14.43
2018-05-02T21:20:49.316Z,14.39
2018-05-02T21:23:15.186Z,14.31
2018-05-02T21:25:41.045Z,14.29
2018-05-02T21:28:06.929Z,14.18
2018-05-02T21:30:32.791Z,14.12
2018-05-02T21:32:58.632Z,14.47
2018-05-02T21:35:24.468Z,14.35
2018-05-02T21:37:50.292Z,14.61
2018-05-02T21:40:16.144Z,14.31
2018-05-02T21:42:42.005Z,14.40
2018-05-02T21:45:07.858Z,14.24
2018-05-02T21:47:33.736Z,14.05
2018-05-02T21:49:59.592Z,14.05
2018-05-02T21:52:25.452Z,13.93
2018-05-02T21:54:51.301Z,13.70
2018-05-02T21:57:17.145Z,13.83
2018-05-02T21:59:43.068Z,13.81
2018-05-02T22:02:08.886Z,14.14
2018-05-02T22:04:34.762Z,13.60
2018-05-02T22:07:00.625Z,13.73
2018-05-02T22:09:26.453Z,13.45
2018-05-02T22:11:52.312Z,13.32
2018-05-02T22:14:18.153Z,13.32
2018-05-02T22:16:44.045Z,13.31
2018-05-02T22:19:09.903Z,13.47
2018-05-02T22:21:35.753Z,13.44
2018-05-02T22:24:01.588Z,13.79
2018-05-02T22:26:27.446Z,13.81
2018-05-02T22:28:53.287Z,13.95
2018-05-02T22:31:19.133Z,13.51
2018-05-02T22:33:44.986Z,13.43
2018-05-02T22:36:10.798Z,13.46
2018-05-02T22:38:36.640Z,13.69
2018-05-02T22:41:02.487Z,13.28
2018-05-02T22:43:28.554Z,13.45
2018-05-02T22:45:54.432Z,13.41
2018-05-02T22:48:20.284Z,13.34
2018-05-02T22:50:46.116Z,13.35
2018-05-02T22:53:12.005Z,13.26
2018-05-02T22:55:37.892Z,13.05
2018-05-02T22:58:03.760Z,12.98
2018-05-02T23:00:29.606Z,13.21
2018-05-02T23:02:55.472Z,13.33
2018-05-02T23:05:21.689Z,13.03
2018-05-02T23:07:47.594Z,13.08
2018-05-02T23:10:13.472Z,13.00
2018-05-02T23:12:39.325Z,12.91
2018-05-02T23:15:05.241Z,13.06
2018-05-02T23:17:31.131Z,12.99
2018-05-02T23:19:56.994Z,12.87
2018-05-02T23:22:22.837Z,12.80
2018-05-02T23:24:48.731Z,13.01
2018-05-02T23:27:14.573Z,12.92
2018-05-02T23:29:40.407Z,12.77
2018-05-02T23:32:06.253Z,12.81
2018-05-02T23:34:32.114Z,12.98
2018-05-02T23:36:57.974Z,12.87
2018-05-02T23:39:23.849Z,12.92
2018-05-02T23:41:49.673Z,13.23
2018-05-02T23:44:15.501Z,13.43
2018-05-02T23:46:41.362Z,13.50
2018-05-02T23:49:07.224Z,13.56
2018-05-02T23:51:33.096Z,13.56
2018-05-02T23:53:58.944Z,13.25
2018-05-02T23:56:24.778Z,13.03
2018-05-02T23:58:50.644Z,12.91
